Time;durP1;ratioP1;P1;durP2;ratioP2;P2;SDS_P1;SDS_P2;PMS_P1;PMS_P2;Temp;Humidity;BMP_temperature;BMP_pressure;BME280_temperature;BME280_humidity;BME280_pressure;Samples;Min_cycle;Max_cycle;Signal;HPM_P1;HPM_P2
2022/11/22 00:00:12;;;;;;;;;;;;;;;3.26;61.83;99601.94;5070845;28;20395;-62
2022/11/22 00:02:38;;;;;;;;;;;;;;;3.42;61.36;99603.59;5072024;28;20058;-61
2022/11/22 00:05:03;;;;;;;;;;;;;;;3.63;60.78;99593.09;5070904;28;19935;-59
2022/11/22 00:07:28;;;;;;;;;;;;;;;3.80;60.36;99594.72;5072467;28;20020;-61
2022/11/22 00:09:54;;;;;;;;;;;;;;;3.76;60.19;99591.28;5072698;28;19932;-61
2022/11/22 00:12:19;;;;;;;;;;;;;;;3.80;60.03;99594.72;5070264;28;20319;-60
2022/11/22 00:14:45;;;;;;;;;;;;;;;3.75;60.17;99599.06;5069814;28;19932;-61
2022/11/22 00:17:10;;;;;;;;;;;;;;;3.76;60.41;99603.41;5072386;28;20364;-62
2022/11/22 00:19:38;;;;;;;;;;;;;;;3.86;60.19;99605.91;5076382;28;19932;-59
2022/11/22 00:22:03;;;;;;;;;;;;;;;3.85;60.03;99606.81;5076771;28;20015;-61
2022/11/22 00:24:28;;;;;;;;;;;;;;;3.87;59.99;99605.06;5075467;28;20024;-60
2022/11/22 00:26:54;;;;;;;;;;;;;;;3.81;60.02;99597.31;5076572;28;19968;-61
2022/11/22 00:29:19;;;;;;;;;;;;;;;3.77;60.26;99599.94;5075286;28;19967;-60
2022/11/22 00:31:44;;;;;;;;;;;;;;;3.84;60.06;99602.50;5074438;28;19935;-60
2022/11/22 00:34:09;;;;;;;;;;;;;;;3.77;60.20;99605.13;5089670;28;19925;-60
2022/11/22 00:36:35;;;;;;;;;;;;;;;3.77;60.37;99606.00;5075213;28;19924;-60
2022/11/22 00:39:00;;;;;;;;;;;;;;;3.73;60.33;99608.63;5076472;28;20408;-61
2022/11/22 00:41:25;;;;;;;;;;;;;;;3.76;60.30;99608.63;5074194;28;19948;-61
2022/11/22 00:43:50;;;;;;;;;;;;;;;3.86;60.10;99611.13;5075955;28;20427;-61
2022/11/22 00:46:16;;;;;;;;;;;;;;;3.94;59.80;99611.94;5108003;28;20241;-61
2022/11/22 00:48:41;;;;;;;;;;;;;;;3.83;60.08;99623.28;5075021;28;19925;-60
2022/11/22 00:51:06;;;;;;;;;;;;;;;3.79;60.19;99614.66;5074572;28;19931;-60
2022/11/22 00:53:32;;;;;;;;;;;;;;;3.86;59.99;99615.47;5077051;28;20011;-60
2022/11/22 00:55:57;;;;;;;;;;;;;;;3.78;60.18;99618.09;5075054;28;19920;-60
2022/11/22 00:58:22;;;;;;;;;;;;;;;3.75;60.41;99622.47;5073846;28;20292;-61
2022/11/22 01:00:48;;;;;;;;;;;;;;;3.90;59.82;99627.56;5075862;28;19931;-59
2022/11/22 01:03:13;;;;;;;;;;;;;;;3.93;59.90;99614.56;5076203;28;19920;-60
2022/11/22 01:05:39;;;;;;;;;;;;;;;3.89;60.10;99613.72;5073790;28;20368;-60
2022/11/22 01:08:04;;;;;;;;;;;;;;;3.93;59.97;99614.56;5074776;28;19924;-60
2022/11/22 01:10:30;;;;;;;;;;;;;;;3.95;59.95;99610.22;5074334;28;19927;-60
2022/11/22 01:12:58;;;;;;;;;;;;;;;3.91;60.13;99621.47;5074494;28;19924;-60
2022/11/22 01:15:23;;;;;;;;;;;;;;;4.00;59.99;99625.78;5075472;28;19928;-60
2022/11/22 01:17:49;;;;;;;;;;;;;;;3.86;60.10;99636.25;5073744;28;20448;-60
2022/11/22 01:20:14;;;;;;;;;;;;;;;3.84;60.29;99648.41;5073972;28;19921;-62
2022/11/22 01:22:39;;;;;;;;;;;;;;;3.83;60.17;99654.44;5074449;28;19921;-61
2022/11/22 01:25:05;;;;;;;;;;;;;;;3.87;60.21;99648.38;5072432;28;19963;-60
2022/11/22 01:27:30;;;;;;;;;;;;;;;3.95;60.01;99636.22;5073291;28;20459;-61
2022/11/22 01:29:55;;;;;;;;;;;;;;;4.09;59.95;99634.38;5073014;28;19920;-60
2022/11/22 01:32:20;;;;;;;;;;;;;;;4.19;59.64;99629.97;5075126;28;20414;-60
2022/11/22 01:34:46;;;;;;;;;;;;;;;4.20;59.52;99621.28;5073867;28;19975;-59
2022/11/22 01:37:11;;;;;;;;;;;;;;;4.16;59.44;99617.84;5073434;28;20391;-61
2022/11/22 01:39:36;;;;;;;;;;;;;;;4.22;59.76;99623.88;5072996;28;19955;-60
2022/11/22 01:42:01;;;;;;;;;;;;;;;4.16;59.54;99615.25;5073008;28;19928;-61
2022/11/22 01:44:28;;;;;;;;;;;;;;;4.07;59.93;99620.53;5075045;28;19920;-60
2022/11/22 01:46:59;;;;;;;;;;;;;;;4.13;59.67;99622.22;5074049;28;19924;-60
2022/11/22 01:49:34;;;;;;;;;;;;;;;4.16;59.70;99625.66;5074502;28;19925;-60
2022/11/22 01:52:06;;;;;;;;;;;;;;;4.30;59.55;99635.06;5070109;28;19920;-60
2022/11/22 01:54:33;;;;;;;;;;;;;;;4.43;59.23;99636.72;5072688;28;19932;-60
2022/11/22 01:57:01;;;;;;;;;;;;;;;4.51;58.79;99636.63;5073987;28;20011;-60
2022/11/22 01:59:29;;;;;;;;;;;;;;;4.44;58.75;99631.50;5072087;28;19924;-61
2022/11/22 02:01:54;;;;;;;;;;;;;;;4.52;58.73;99626.22;5073161;28;20028;-60
2022/11/22 02:04:22;;;;;;;;;;;;;;;4.55;58.70;99628.81;5073137;28;20316;-61
2022/11/22 02:06:56;;;;;;;;;;;;;;;4.59;58.50;99633.09;5073695;28;19974;-60
2022/11/22 02:09:21;;;;;;;;;;;;;;;4.55;58.62;99631.41;5073489;28;20364;-61
2022/11/22 02:11:51;;;;;;;;;;;;;;;4.59;58.64;99632.25;5074513;28;19938;-61
2022/11/22 02:14:19;;;;;;;;;;;;;;;4.57;58.78;99639.19;5072588;28;19917;-61
2022/11/22 02:16:44;;;;;;;;;;;;;;;4.61;58.52;99627.88;5073488;28;19920;-61
2022/11/22 02:19:13;;;;;;;;;;;;;;;4.42;59.01;99629.75;5073555;28;19947;-60
2022/11/22 02:21:38;;;;;;;;;;;;;;;4.47;59.03;99630.59;5074121;28;19921;-60
2022/11/22 02:24:14;;;;;;;;;;;;;;;4.50;58.93;99634.91;5073406;28;19931;-61
2022/11/22 02:26:39;;;;;;;;;;;;;;;4.54;58.96;99634.84;5072210;28;19963;-60
2022/11/22 02:29:06;;;;;;;;;;;;;;;4.61;58.79;99640.88;5071894;28;20323;-60
2022/11/22 02:31:36;;;;;;;;;;;;;;;4.47;59.17;99629.72;5072834;28;19925;-61
2022/11/22 02:34:01;;;;;;;;;;;;;;;4.43;59.14;99640.19;5074042;28;19930;-62
2022/11/22 02:36:27;;;;;;;;;;;;;;;4.49;59.08;99631.44;5073703;28;19921;-61
2022/11/22 02:38:52;;;;;;;;;;;;;;;4.54;58.95;99636.59;5074967;28;20050;-61
2022/11/22 02:41:18;;;;;;;;;;;;;;;4.60;58.96;99632.22;5072152;28;19924;-61
2022/11/22 02:43:45;;;;;;;;;;;;;;;4.65;58.69;99619.16;5073933;28;19931;-61
2022/11/22 02:46:11;;;;;;;;;;;;;;;4.68;58.56;99620.00;5071709;28;19927;-61
2022/11/22 02:48:40;;;;;;;;;;;;;;;4.67;58.81;99615.66;5073528;28;19925;-61
2022/11/22 02:51:05;;;;;;;;;;;;;;;4.58;58.89;99614.88;5072577;28;19921;-61
2022/11/22 02:53:30;;;;;;;;;;;;;;;4.64;58.78;99618.28;5070783;28;20372;-61
2022/11/22 02:55:56;;;;;;;;;;;;;;;4.70;58.69;99620.81;5073102;28;19931;-61
2022/11/22 02:58:21;;;;;;;;;;;;;;;4.77;58.56;99618.16;5073793;28;19925;-61
2022/11/22 03:00:46;;;;;;;;;;;;;;;4.85;58.25;99616.34;5071691;28;19936;-61
2022/11/22 03:03:11;;;;;;;;;;;;;;;4.84;58.17;99617.25;5070654;28;20338;-60
2022/11/22 03:05:37;;;;;;;;;;;;;;;4.85;58.10;99622.41;5072509;28;20015;-60
2022/11/22 03:08:02;;;;;;;;;;;;;;;4.71;58.34;99616.50;5073468;28;19925;-61
2022/11/22 03:10:27;;;;;;;;;;;;;;;4.67;58.52;99613.06;5073087;28;19925;-60
2022/11/22 03:12:53;;;;;;;;;;;;;;;4.48;59.02;99606.31;5071547;28;20018;-61
2022/11/22 03:15:18;;;;;;;;;;;;;;;4.60;58.72;99606.19;5073292;28;20433;-60
2022/11/22 03:17:44;;;;;;;;;;;;;;;4.53;58.87;99601.91;5071523;28;19924;-61
2022/11/22 03:20:09;;;;;;;;;;;;;;;4.41;59.05;99602.03;5072328;28;19940;-60
2022/11/22 03:22:34;;;;;;;;;;;;;;;4.42;59.27;99608.94;5072726;28;19985;-61
2022/11/22 03:24:59;;;;;;;;;;;;;;;4.41;59.13;99607.25;5072267;28;19943;-60
2022/11/22 03:27:25;;;;;;;;;;;;;;;4.36;59.37;99601.22;5073446;28;19928;-60
2022/11/22 03:29:50;;;;;;;;;;;;;;;4.45;59.23;99599.38;5071674;28;19924;-60
2022/11/22 03:32:15;;;;;;;;;;;;;;;4.28;59.88;99606.50;5072212;28;19920;-62
2022/11/22 03:34:40;;;;;;;;;;;;;;;4.36;59.55;99607.28;5072819;28;19924;-60
2022/11/22 03:37:06;;;;;;;;;;;;;;;4.30;59.70;99609.91;5072311;28;19924;-62
2022/11/22 03:39:31;;;;;;;;;;;;;;;4.39;59.60;99601.19;5073002;28;20283;-60
2022/11/22 03:41:56;;;;;;;;;;;;;;;4.42;59.46;99606.34;5073163;28;19960;-60
2022/11/22 03:44:22;;;;;;;;;;;;;;;4.46;59.39;99597.66;5070559;28;19929;-60
2022/11/22 03:46:47;;;;;;;;;;;;;;;4.43;59.60;99608.09;5073659;28;19920;-60
2022/11/22 03:49:12;;;;;;;;;;;;;;;4.65;59.13;99604.41;5073751;28;19931;-61
2022/11/22 03:51:38;;;;;;;;;;;;;;;4.75;59.33;99606.91;5071766;28;19926;-61
2022/11/22 03:54:03;;;;;;;;;;;;;;;4.71;58.77;99619.09;5072960;28;19920;-61
2022/11/22 03:56:28;;;;;;;;;;;;;;;4.61;59.13;99607.91;5072482;28;19927;-61
2022/11/22 03:58:53;;;;;;;;;;;;;;;4.71;58.85;99611.31;5073552;28;20005;-61
2022/11/22 04:01:18;;;;;;;;;;;;;;;4.81;58.56;99619.88;5073614;28;19921;-60
2022/11/22 04:03:44;;;;;;;;;;;;;;;4.80;58.56;99621.59;5072437;28;20371;-60
2022/11/22 04:06:09;;;;;;;;;;;;;;;4.77;58.63;99619.03;5072592;28;19927;-60
2022/11/22 04:08:34;;;;;;;;;;;;;;;4.83;58.74;99628.53;5071438;28;19978;-60
2022/11/22 04:10:59;;;;;;;;;;;;;;;4.88;58.47;99622.38;5079383;28;19932;-60
2022/11/22 04:15:05;;;;;;;;;;;;;;;4.83;58.61;99634.59;5053789;28;20383;-60
2022/11/22 04:16:10;;;;;;;;;;;;;;;4.81;58.68;99632.88;5053472;28;19916;-60
2022/11/22 04:18:35;;;;;;;;;;;;;;;4.81;58.67;99625.06;5053223;28;19924;-60
2022/11/22 04:25:12;;;;;;;;;;;;;;;4.75;58.85;99628.63;5054118;28;19928;-61
2022/11/22 04:26:30;;;;;;;;;;;;;;;4.68;59.18;99616.53;5068343;28;19920;-61
2022/11/22 04:28:55;;;;;;;;;;;;;;;4.69;59.27;99624.31;5073583;28;19955;-60
2022/11/22 04:34:04;;;;;;;;;;;;;;;4.85;59.07;99622.41;5072657;28;19928;-61
2022/11/22 04:36:29;;;;;;;;;;;;;;;4.79;59.13;99634.63;5073237;28;19925;-61
2022/11/22 04:38:54;;;;;;;;;;;;;;;4.90;59.06;99631.03;5073246;28;19916;-60
2022/11/22 04:41:20;;;;;;;;;;;;;;;4.99;58.88;99631.81;5072189;28;20363;-60
2022/11/22 04:46:30;;;;;;;;;;;;;;;5.07;58.84;99620.47;5072275;28;20018;-60
2022/11/22 04:48:55;;;;;;;;;;;;;;;5.11;58.86;99616.94;5072089;28;19970;-61
2022/11/22 04:54:04;;;;;;;;;;;;;;;5.12;58.96;99626.47;5073525;28;19927;-61
2022/11/22 04:56:30;;;;;;;;;;;;;;;5.21;58.73;99624.63;5072330;28;20007;-60
2022/11/22 04:58:55;;;;;;;;;;;;;;;5.20;58.88;99631.59;5072281;28;19924;-61
2022/11/22 05:01:20;;;;;;;;;;;;;;;5.26;58.75;99630.63;5072216;28;19920;-60
2022/11/22 05:03:45;;;;;;;;;;;;;;;5.24;58.85;99632.41;5072922;28;19975;-60
2022/11/22 05:06:11;;;;;;;;;;;;;;;5.30;58.67;99630.56;5076771;28;19931;-60
2022/11/22 05:08:37;;;;;;;;;;;;;;;5.30;58.70;99629.72;5076694;28;19939;-60
2022/11/22 05:11:02;;;;;;;;;;;;;;;5.30;58.71;99629.72;5076181;28;20431;-61
2022/11/22 05:13:32;;;;;;;;;;;;;;;5.24;58.96;99632.41;5076271;28;19921;-61
2022/11/22 05:15:57;;;;;;;;;;;;;;;5.19;58.96;99622.91;5076614;28;19917;-61
2022/11/22 05:18:23;;;;;;;;;;;;;;;5.20;59.02;99621.16;5075212;28;19929;-61
2022/11/22 05:20:48;;;;;;;;;;;;;;;5.25;59.03;99618.50;5073580;28;19925;-61
2022/11/22 05:25:58;;;;;;;;;;;;;;;5.26;59.04;99623.69;5076655;28;19924;-60
2022/11/22 05:28:27;;;;;;;;;;;;;;;5.25;58.92;99626.31;5075376;28;19924;-61
2022/11/22 05:30:52;;;;;;;;;;;;;;;5.16;59.82;99633.38;5072280;28;20090;-59
2022/11/22 05:33:17;;;;;;;;;;;;;;;5.18;59.54;99641.13;5079847;28;20356;-60
2022/11/22 05:35:42;;;;;;;;;;;;;;;5.27;59.25;99642.81;5088201;28;19931;-61
2022/11/22 05:38:08;;;;;;;;;;;;;;;5.35;59.20;99644.44;5090145;28;19925;-60
2022/11/22 05:40:33;;;;;;;;;;;;;;;5.34;59.48;99647.03;5076328;28;20007;-60
2022/11/22 05:42:58;;;;;;;;;;;;;;;5.30;59.17;99642.75;5074835;28;19924;-60
2022/11/22 05:45:24;;;;;;;;;;;;;;;5.22;59.42;99649.78;5075534;28;20372;-61
2022/11/22 05:47:49;;;;;;;;;;;;;;;5.20;59.42;99647.22;5075126;28;19935;-60
2022/11/22 05:50:14;;;;;;;;;;;;;;;4.99;59.87;99645.72;5075488;28;19924;-60
2022/11/22 05:52:39;;;;;;;;;;;;;;;5.08;59.85;99647.34;5074218;28;19928;-61
2022/11/22 05:55:05;;;;;;;;;;;;;;;5.10;60.19;99656.84;5074715;28;20291;-60
2022/11/22 05:57:31;;;;;;;;;;;;;;;5.20;60.05;99652.41;5075708;28;19975;-60
2022/11/22 05:59:56;;;;;;;;;;;;;;;5.11;60.13;99653.41;5074535;28;19931;-59
2022/11/22 06:02:21;;;;;;;;;;;;;;;5.15;60.22;99652.47;5073072;28;19932;-60
2022/11/22 06:04:47;;;;;;;;;;;;;;;5.19;60.18;99661.97;5076991;28;20387;-60
2022/11/22 06:07:12;;;;;;;;;;;;;;;5.24;60.04;99661.06;5076286;28;19921;-60
2022/11/22 06:09:37;;;;;;;;;;;;;;;5.26;59.89;99672.31;5073312;28;19925;-59
2022/11/22 06:12:02;;;;;;;;;;;;;;;5.29;60.02;99664.47;5080723;28;20398;-61
2022/11/22 06:14:28;;;;;;;;;;;;;;;5.25;60.02;99665.38;5074603;28;19921;-61
2022/11/22 06:16:53;;;;;;;;;;;;;;;5.21;60.62;99661.94;5055534;28;19928;-61
2022/11/22 06:19:18;;;;;;;;;;;;;;;5.29;60.49;99674.88;5076599;28;19928;-61
2022/11/22 06:21:43;;;;;;;;;;;;;;;5.28;60.15;99678.38;5077383;28;20349;-61
2022/11/22 06:24:09;;;;;;;;;;;;;;;5.15;61.00;99678.53;5079019;28;19920;-60
2022/11/22 06:26:35;;;;;;;;;;;;;;;5.22;60.51;99678.44;5081864;28;19970;-61
2022/11/22 06:29:00;;;;;;;;;;;;;;;5.23;61.19;99685.41;5073914;28;19942;-61
2022/11/22 06:31:26;;;;;;;;;;;;;;;5.21;60.62;99681.94;5073230;28;19983;-60
2022/11/22 06:33:56;;;;;;;;;;;;;;;5.14;60.81;99679.38;5074711;28;19958;-61
2022/11/22 06:36:25;;;;;;;;;;;;;;;5.16;61.08;99690.66;5075023;28;19939;-60
2022/11/22 06:38:50;;;;;;;;;;;;;;;5.16;60.82;99689.78;5081541;28;20376;-60
2022/11/22 06:41:17;;;;;;;;;;;;;;;5.19;60.97;99685.41;5090998;28;19931;-61
2022/11/22 06:43:43;;;;;;;;;;;;;;;5.25;60.84;99694.03;5091124;28;19935;-60
2022/11/22 06:46:09;;;;;;;;;;;;;;;5.32;60.61;99700.91;5090043;28;19943;-62
2022/11/22 06:48:35;;;;;;;;;;;;;;;5.34;60.49;99701.75;5091277;28;20386;-59
2022/11/22 06:51:02;;;;;;;;;;;;;;;5.39;60.31;99705.19;5089810;28;20014;-60
2022/11/22 06:53:28;;;;;;;;;;;;;;;5.38;60.36;99706.03;5091436;28;19946;-61
2022/11/22 06:56:00;;;;;;;;;;;;;;;5.42;60.37;99713.78;5089711;28;19932;-60
2022/11/22 06:58:25;;;;;;;;;;;;;;;5.38;60.54;99708.66;5077444;28;20017;-60
2022/11/22 07:00:51;;;;;;;;;;;;;;;5.44;60.69;99712.06;5080548;28;20387;-61
2022/11/22 07:03:16;;;;;;;;;;;;;;;5.37;60.33;99709.53;5091093;28;19924;-61
2022/11/22 07:05:48;;;;;;;;;;;;;;;5.38;60.92;99706.03;5079298;28;19928;-62
2022/11/22 07:08:13;;;;;;;;;;;;;;;5.37;60.86;99709.53;5068254;28;19921;-60
2022/11/22 07:10:39;;;;;;;;;;;;;;;5.40;60.93;99715.56;5079651;28;19931;-60
2022/11/22 07:13:04;;;;;;;;;;;;;;;5.37;60.73;99714.75;5072495;28;19930;-61
2022/11/22 07:15:29;;;;;;;;;;;;;;;5.43;60.43;99714.69;5073705;28;20334;-61
2022/11/22 07:17:54;;;;;;;;;;;;;;;5.37;60.55;99720.81;5074432;28;19921;-61
2022/11/22 07:20:20;;;;;;;;;;;;;;;5.43;60.62;99730.31;5088936;28;19928;-60
2022/11/22 07:22:46;;;;;;;;;;;;;;;5.46;60.61;99734.63;5092925;28;20006;-62
2022/11/22 07:25:11;;;;;;;;;;;;;;;5.51;60.41;99738.91;5094149;28;19916;-62
2022/11/22 07:27:36;;;;;;;;;;;;;;;5.24;61.15;99744.41;5093965;28;19990;-62
2022/11/22 07:30:02;;;;;;;;;;;;;;;5.47;60.54;99736.38;5093085;28;19920;-62
2022/11/22 07:32:27;;;;;;;;;;;;;;;5.59;60.32;99742.28;5080587;28;20368;-60
2022/11/22 07:34:52;;;;;;;;;;;;;;;5.65;60.20;99743.94;5074078;28;19916;-62
2022/11/22 07:37:17;;;;;;;;;;;;;;;5.68;59.97;99736.09;5077709;28;20022;-61
2022/11/22 07:39:43;;;;;;;;;;;;;;;5.61;60.08;99735.31;5074669;28;19924;-60
2022/11/22 07:42:08;;;;;;;;;;;;;;;5.57;60.03;99723.19;5085753;28;19924;-61
2022/11/22 07:44:33;;;;;;;;;;;;;;;5.63;60.09;99722.28;5083404;28;20360;-62
2022/11/22 07:46:58;;;;;;;;;;;;;;;5.65;59.70;99716.13;5074525;28;19943;-60
2022/11/22 07:49:24;;;;;;;;;;;;;;;5.76;59.61;99733.41;5073489;28;19926;-61
2022/11/22 07:51:49;;;;;;;;;;;;;;;5.79;59.63;99749.88;5074183;28;20059;-60
2022/11/22 07:54:14;;;;;;;;;;;;;;;5.91;59.47;99749.72;5073688;28;19974;-61
2022/11/22 07:56:40;;;;;;;;;;;;;;;6.02;58.98;99747.00;5081067;28;19931;-60
2022/11/22 07:59:05;;;;;;;;;;;;;;;5.93;58.86;99747.13;5074715;28;19951;-61
2022/11/22 08:01:30;;;;;;;;;;;;;;;5.96;58.54;99756.66;5084508;28;19927;-61
2022/11/22 08:03:55;;;;;;;;;;;;;;;6.03;58.16;99753.94;5088762;28;19933;-61
2022/11/22 08:06:21;;;;;;;;;;;;;;;6.10;57.81;99746.88;5090319;28;19969;-61
2022/11/22 08:08:46;;;;;;;;;;;;;;;6.01;57.98;99750.50;5088496;28;20418;-63
2022/11/22 08:11:12;;;;;;;;;;;;;;;6.14;57.92;99766.84;5089245;28;20018;-61
2022/11/22 08:13:37;;;;;;;;;;;;;;;6.19;57.91;99774.63;5089746;28;19927;-62
2022/11/22 08:16:04;;;;;;;;;;;;;;;6.10;57.63;99768.66;5082497;28;19920;-62
2022/11/22 08:18:29;;;;;;;;;;;;;;;6.18;57.58;99752.84;5075085;28;20266;-61
2022/11/22 08:21:05;;;;;;;;;;;;;;;6.21;57.48;99758.03;5077745;28;19929;-61
2022/11/22 08:23:30;;;;;;;;;;;;;;;6.28;57.22;99764.91;5075333;28;19916;-61
2022/11/22 08:25:56;;;;;;;;;;;;;;;6.26;57.22;99765.81;5082523;28;20378;-60
2022/11/22 08:28:22;;;;;;;;;;;;;;;6.19;57.22;99764.19;5074989;28;19995;-61
2022/11/22 08:30:47;;;;;;;;;;;;;;;6.23;57.20;99756.28;5080189;28;20057;-61
2022/11/22 08:33:12;;;;;;;;;;;;;;;6.29;56.81;99760.56;5075493;28;19954;-61
2022/11/22 08:35:37;;;;;;;;;;;;;;;6.20;57.10;99756.31;5075401;28;19924;-60
2022/11/22 08:38:02;;;;;;;;;;;;;;;6.33;57.00;99757.00;5077301;28;19924;-60
2022/11/22 08:40:28;;;;;;;;;;;;;;;6.44;56.87;99765.56;5079230;28;20482;-61
2022/11/22 08:42:54;;;;;;;;;;;;;;;6.27;56.78;99764.94;5080125;28;19939;-61
2022/11/22 08:45:19;;;;;;;;;;;;;;;6.41;56.68;99773.41;5079083;28;20293;-62
2022/11/22 08:47:45;;;;;;;;;;;;;;;6.52;56.40;99768.91;5110214;28;19927;-61
2022/11/22 08:50:10;;;;;;;;;;;;;;;6.53;56.26;99767.16;5079056;28;19925;-61
2022/11/22 08:52:35;;;;;;;;;;;;;;;6.47;56.68;99759.44;5078872;28;19925;-61
2022/11/22 08:55:01;;;;;;;;;;;;;;;6.39;56.53;99767.38;5079910;28;19928;-61
2022/11/22 08:57:26;;;;;;;;;;;;;;;6.37;56.71;99761.31;5077671;28;20364;-61
2022/11/22 08:59:51;;;;;;;;;;;;;;;6.41;56.75;99755.16;5080397;28;20019;-61
2022/11/22 09:02:16;;;;;;;;;;;;;;;6.48;58.14;99751.56;5090142;28;19927;-61
2022/11/22 09:04:42;;;;;;;;;;;;;;;6.56;57.05;99760.16;5092760;28;19943;-60
2022/11/22 09:07:07;;;;;;;;;;;;;;;6.71;56.85;99756.44;5079131;28;19921;-61
2022/11/22 09:09:32;;;;;;;;;;;;;;;6.65;55.97;99753.91;5078646;28;19928;-62
2022/11/22 09:11:57;;;;;;;;;;;;;;;6.78;56.59;99759.81;5078434;28;19930;-60
2022/11/22 09:14:23;;;;;;;;;;;;;;;6.79;56.34;99762.41;5078575;28;19932;-61
2022/11/22 09:16:48;;;;;;;;;;;;;;;6.78;55.60;99775.47;5088078;28;20007;-60
2022/11/22 09:19:13;;;;;;;;;;;;;;;6.89;55.24;99776.16;5090098;28;19920;-61
2022/11/22 09:21:38;;;;;;;;;;;;;;;6.90;54.70;99775.28;5080451;28;20277;-62
2022/11/22 09:24:04;;;;;;;;;;;;;;;6.84;55.19;99764.94;5076983;28;19942;-61
2022/11/22 09:26:29;;;;;;;;;;;;;;;6.87;55.95;99762.28;5082109;28;20396;-62
2022/11/22 09:28:55;;;;;;;;;;;;;;;6.81;55.07;99773.69;5077573;28;19927;-61
2022/11/22 09:31:21;;;;;;;;;;;;;;;6.76;55.56;99772.91;5077392;28;20380;-62
2022/11/22 09:33:48;;;;;;;;;;;;;;;6.94;56.44;99761.28;5075522;28;19962;-61
2022/11/22 09:36:18;;;;;;;;;;;;;;;7.06;55.40;99768.94;5077687;28;19924;-61
2022/11/22 09:38:43;;;;;;;;;;;;;;;7.00;54.93;99769.03;5079271;28;19989;-61
2022/11/22 09:41:11;;;;;;;;;;;;;;;6.98;54.19;99768.19;5075874;28;20384;-61
2022/11/22 09:43:55;;;;;;;;;;;;;;;6.93;55.49;99770.00;5078468;28;19924;-62
2022/11/22 09:46:38;;;;;;;;;;;;;;;6.98;54.73;99754.25;5081374;28;19923;-61
2022/11/22 09:49:20;;;;;;;;;;;;;;;6.98;54.01;99764.69;5075283;28;19956;-61
2022/11/22 09:51:48;;;;;;;;;;;;;;;6.96;54.04;99754.28;5071852;28;20015;-63
2022/11/22 09:54:20;;;;;;;;;;;;;;;6.98;55.45;99755.16;5071483;28;19916;-61
2022/11/22 09:56:46;;;;;;;;;;;;;;;7.10;54.81;99757.53;5075193;28;19966;-61
2022/11/22 09:59:15;;;;;;;;;;;;;;;7.22;54.69;99763.41;5075211;28;19928;-61
2022/11/22 10:01:52;;;;;;;;;;;;;;;7.21;53.84;99762.56;5075890;28;19916;-62
2022/11/22 10:04:26;;;;;;;;;;;;;;;7.23;55.91;99767.78;5075717;28;19916;-61
2022/11/22 10:06:57;;;;;;;;;;;;;;;7.27;53.11;99759.00;5088153;28;19967;-61
2022/11/22 10:09:39;;;;;;;;;;;;;;;7.30;53.21;99762.41;5075621;28;19927;-60
2022/11/22 10:12:10;;;;;;;;;;;;;;;7.33;52.51;99759.72;5074671;28;20013;-63
2022/11/22 10:14:35;;;;;;;;;;;;;;;7.30;53.28;99770.25;5075467;28;19916;-61
2022/11/22 10:17:20;;;;;;;;;;;;;;;7.34;54.34;99765.81;5085808;28;19988;-61
2022/11/22 10:19:50;;;;;;;;;;;;;;;7.30;54.64;99762.41;5074779;28;19999;-61
2022/11/22 10:22:15;;;;;;;;;;;;;;;7.20;53.40;99762.59;5078426;28;19920;-62
2022/11/22 10:24:42;;;;;;;;;;;;;;;7.35;52.98;99768.41;5078706;28;20406;-61
2022/11/22 10:27:14;;;;;;;;;;;;;;;7.35;52.26;99767.56;5081833;28;19921;-61
2022/11/22 10:29:58;;;;;;;;;;;;;;;7.30;52.33;99771.97;5071518;28;19952;-61
2022/11/22 10:32:24;;;;;;;;;;;;;;;7.38;51.57;99773.59;5078286;28;20010;-60
2022/11/22 10:34:52;;;;;;;;;;;;;;;7.32;51.61;99772.81;5077185;28;20459;-61
2022/11/22 10:37:17;;;;;;;;;;;;;;;7.33;52.32;99782.38;5078089;28;19928;-62
2022/11/22 10:39:58;;;;;;;;;;;;;;;7.33;51.92;99777.16;5077103;28;19928;-60
2022/11/22 10:42:23;;;;;;;;;;;;;;;7.25;51.92;99779.91;5089039;28;19924;-61
2022/11/22 10:44:59;;;;;;;;;;;;;;;7.49;51.91;99786.44;5072018;28;19928;-62
2022/11/22 10:47:27;;;;;;;;;;;;;;;7.47;51.98;99777.78;5076465;28;19959;-62
2022/11/22 10:49:55;;;;;;;;;;;;;;;7.41;51.37;99773.50;5076563;28;19975;-61
2022/11/22 10:52:26;;;;;;;;;;;;;;;7.52;52.04;99764.63;5075456;28;19929;-62
2022/11/22 10:55:09;;;;;;;;;;;;;;;7.37;53.36;99761.38;5088752;28;19920;-61
2022/11/22 10:57:39;;;;;;;;;;;;;;;7.24;51.20;99759.91;5074908;28;19924;-61
2022/11/22 11:00:05;;;;;;;;;;;;;;;7.61;51.55;99749.59;5075127;28;19944;-61
2022/11/22 11:02:30;;;;;;;;;;;;;;;7.73;50.66;99758.97;5078996;28;19987;-61
2022/11/22 11:04:56;;;;;;;;;;;;;;;7.63;50.98;99753.06;5075663;28;19920;-60
2022/11/22 11:07:22;;;;;;;;;;;;;;;7.75;52.33;99753.72;5059631;28;19939;-61
2022/11/22 11:09:53;;;;;;;;;;;;;;;7.80;49.94;99749.25;5076510;28;19955;-62
2022/11/22 11:12:31;;;;;;;;;;;;;;;8.05;51.06;99757.44;5077382;28;20023;-61
2022/11/22 11:15:03;;;;;;;;;;;;;;;8.02;49.22;99755.78;5075365;28;19920;-61
2022/11/22 11:17:31;;;;;;;;;;;;;;;8.14;48.46;99757.25;5078307;28;19916;-62
2022/11/22 11:19:58;;;;;;;;;;;;;;;8.18;52.64;99756.31;5076479;28;19920;-62
2022/11/22 11:22:24;;;;;;;;;;;;;;;8.26;50.89;99757.00;5077383;28;19928;-62
2022/11/22 11:24:50;;;;;;;;;;;;;;;8.34;50.24;99746.34;5076925;28;19921;-62
2022/11/22 11:27:16;;;;;;;;;;;;;;;8.42;48.88;99735.72;5076179;28;19948;-62
2022/11/22 11:29:41;;;;;;;;;;;;;;;8.33;48.60;99735.00;5074833;28;19920;-60
2022/11/22 11:32:08;;;;;;;;;;;;;;;8.31;49.57;99731.56;5074989;28;19964;-61
2022/11/22 11:34:34;;;;;;;;;;;;;;;8.46;48.66;99726.91;5079175;28;19970;-62
2022/11/22 11:37:00;;;;;;;;;;;;;;;8.63;49.18;99722.13;5074121;28;19924;-62
2022/11/22 11:39:30;;;;;;;;;;;;;;;8.64;49.54;99726.47;5084769;28;19920;-61
2022/11/22 11:41:56;;;;;;;;;;;;;;;8.59;48.04;99720.50;5078021;28;20425;-61
2022/11/22 11:44:24;;;;;;;;;;;;;;;8.42;47.91;99720.91;5106079;28;19924;-61
2022/11/22 11:46:49;;;;;;;;;;;;;;;8.33;50.10;99714.06;5078505;28;19923;-61
2022/11/22 11:49:16;;;;;;;;;;;;;;;8.32;48.46;99716.72;5085155;28;19924;-61
2022/11/22 11:51:46;;;;;;;;;;;;;;;8.19;48.72;99710.91;5078108;28;19920;-62
2022/11/22 11:54:16;;;;;;;;;;;;;;;8.08;48.12;99711.13;5084625;28;19920;-60
2022/11/22 11:56:44;;;;;;;;;;;;;;;8.27;49.06;99714.22;5090463;28;20374;-61
2022/11/22 11:59:11;;;;;;;;;;;;;;;8.24;48.47;99711.66;5081144;28;19967;-61
2022/11/22 12:01:41;;;;;;;;;;;;;;;8.41;48.56;99713.91;5073830;28;19916;-61
2022/11/22 12:04:17;;;;;;;;;;;;;;;8.46;48.24;99713.81;5069318;28;20295;-62
2022/11/22 12:06:51;;;;;;;;;;;;;;;8.50;48.56;99716.34;5083794;28;19924;-62
2022/11/22 12:09:26;;;;;;;;;;;;;;;8.58;48.64;99714.41;5093881;28;19917;-60
2022/11/22 12:11:52;;;;;;;;;;;;;;;8.88;48.81;99727.63;5094483;28;20383;-61
2022/11/22 12:14:19;;;;;;;;;;;;;;;9.13;48.54;99731.31;5082027;28;19925;-61
2022/11/22 12:16:50;;;;;;;;;;;;;;;9.08;46.58;99741.09;5092027;28;19920;-61
2022/11/22 12:19:21;;;;;;;;;;;;;;;9.17;47.00;99739.97;5081446;28;19920;-62
2022/11/22 12:21:56;;;;;;;;;;;;;;;9.18;47.24;99746.97;5077523;28;20070;-62
2022/11/22 12:24:45;;;;;;;;;;;;;;;9.18;48.09;99740.88;5087119;28;20393;-63
2022/11/22 12:27:11;;;;;;;;;;;;;;;9.13;47.95;99744.44;5098006;28;19974;-61
2022/11/22 12:29:38;;;;;;;;;;;;;;;9.13;48.23;99747.06;5097441;28;19920;-60
2022/11/22 12:32:06;;;;;;;;;;;;;;;8.99;48.21;99750.94;5097557;28;19920;-61
2022/11/22 12:34:36;;;;;;;;;;;;;;;9.13;47.75;99754.06;5098132;28;19916;-62
2022/11/22 12:37:07;;;;;;;;;;;;;;;9.07;47.27;99751.63;5097619;28;19916;-61
2022/11/22 12:39:35;;;;;;;;;;;;;;;8.96;47.48;99751.03;5097586;28;20399;-61
2022/11/22 12:42:09;;;;;;;;;;;;;;;8.99;48.54;99759.66;5097576;28;19923;-61
2022/11/22 12:44:40;;;;;;;;;;;;;;;8.95;47.55;99758.03;5096103;28;19922;-61
2022/11/22 12:47:12;;;;;;;;;;;;;;;8.80;48.38;99746.16;5097465;28;19969;-62
2022/11/22 12:49:46;;;;;;;;;;;;;;;8.77;47.77;99748.84;5096059;28;19967;-62
2022/11/22 12:52:11;;;;;;;;;;;;;;;8.66;48.52;99752.59;5097401;28;19916;-61
2022/11/22 12:54:59;;;;;;;;;;;;;;;8.49;48.71;99753.88;5097168;28;19922;-61
2022/11/22 12:57:31;;;;;;;;;;;;;;;8.32;48.53;99750.75;5097684;28;19916;-61
2022/11/22 13:00:13;;;;;;;;;;;;;;;8.24;49.42;99750.06;5098122;28;19916;-62
2022/11/22 13:02:56;;;;;;;;;;;;;;;8.23;49.54;99748.34;5097877;28;19986;-61
2022/11/22 13:05:30;;;;;;;;;;;;;;;8.22;49.94;99751.84;5097053;28;19923;-61
2022/11/22 13:07:55;;;;;;;;;;;;;;;8.04;49.70;99742.66;5097039;28;19916;-62
2022/11/22 13:10:27;;;;;;;;;;;;;;;7.84;49.94;99748.28;5085146;28;20386;-63